Pagrindinis puslapis
METAR-TAF:

METAR-TAF

Oro uostai :

Honkongo tarptautinis oro uostas

Honkongas, Kinija

platuma: 22-19N, ilguma: 113-55E, Aukštis: 9 m

Dabartinis oras

Ataskaita buvo paskelbta 49 minutes, ne 22:30 UTC
Vėjas 2 kt nuo kintamojo kryptimis
Temperatūra 17°C
Drėgmė 77%
Slėgis 1026 hPa
Matomumas 10 km arba daugiau
nėra debesų žemiau 1500 m ir nėra kamuolinių lietaus debesų

METAR: VHHH 212230Z VRB02KT CAVOK 17/13 Q1026 NOSIG

Laikas: 07:19 (23:19 UTC)

Prognozė

Ataskaita buvo paskelbta 6 valandos ir 19 minutes, ne 17:00 UTC
Prognozė galioja nuo 21 metu 18 UTC su 22 metu 24 UTC
Vėjas 10 kt iš Šiaurės Rytų
Matomumas 10 km arba daugiau
nėra debesų žemiau 1500 m ir nėra kamuolinių lietaus debesų
Laikinai
nuo 21 metu 18 UTC su 22 metu 03 UTC
Vėjas 5 kt nuo kintamojo kryptimis
Tapsmas
nuo 22 metu 03 UTC su 22 metu 05 UTC
Vėjas 10 kt iš Vakarų
Tapsmas
nuo 22 metu 09 UTC su 22 metu 11 UTC
Vėjas 10 kt iš Rytų

TAF: VHHH 211700Z 2118/2224 05010KT CAVOK TX25/2206Z TN16/2123Z TN17/2223Z TEMPO 2118/2203 VRB05KT BECMG 2203/2205 28010KT BECMG 2209/2211 10010KT

Orai ataskaitas ir orų prognozės (METAR, TAF).

turimą stotys yra geltonos ir raudonos taškus žemėlapyje.

Perkelti pele per norėdami pamatyti stoties vardą.

Tada spustelėkite, norėdami matyti oro stebėjimo ir prognozės.

Norėdami pakeisti žemėlapį: spustelėkite ant žalios mygtukų su juodo kryžiaus žemyn,; žalią mygtuką su brūkšneliu, jei norite nutolinti; arba žalių rodyklių gretimoms žemėlapius.


METAR-TAF: